Time;durP1;ratioP1;P1;durP2;ratioP2;P2;SDS_P1;SDS_P2;PMS_P1;PMS_P2;Temp;Humidity;BMP_temperature;BMP_pressure;BME280_temperature;BME280_humidity;BME280_pressure;Samples;Min_cycle;Max_cycle;Signal;HPM_P1;HPM_P2
2022/09/03 00:00:51;;;;;;;;;;;;;;;17.39;60.30;99955.37;4376788;32;33257;-86
2022/09/03 00:03:22;;;;;;;;;;;;;;;17.33;60.41;99954.94;4374476;32;34008;-86
2022/09/03 00:05:50;;;;;;;;;;;;;;;17.32;60.45;99959.41;4371992;32;34283;-86
2022/09/03 00:08:20;;;;;;;;;;;;;;;17.35;60.12;99953.00;4377834;32;31914;-86
2022/09/03 00:10:58;;;;;;;;;;;;;;;17.35;60.19;99958.34;4392009;32;34001;-86
2022/09/03 00:13:34;;;;;;;;;;;;;;;17.40;59.99;99954.41;4385111;32;34348;-86
2022/09/03 00:16:02;;;;;;;;;;;;;;;17.31;60.50;99951.50;4390605;32;35150;-86
2022/09/03 00:18:30;;;;;;;;;;;;;;;17.37;60.10;99956.41;4375989;32;32365;-86
2022/09/03 00:21:07;;;;;;;;;;;;;;;17.24;60.49;99960.91;4378302;32;34269;-86
2022/09/03 00:23:36;;;;;;;;;;;;;;;17.27;60.40;99958.00;4359846;32;871852;-86
2022/09/03 00:26:10;;;;;;;;;;;;;;;17.15;60.61;99963.25;4387924;32;33454;-87
2022/09/03 00:28:40;;;;;;;;;;;;;;;17.09;61.02;99963.69;4378699;32;33072;-87
2022/09/03 00:31:20;;;;;;;;;;;;;;;17.18;60.80;99956.81;4389625;32;33866;-87
2022/09/03 00:33:47;;;;;;;;;;;;;;;17.31;60.34;99962.19;4390742;32;34716;-87
2022/09/03 00:36:16;;;;;;;;;;;;;;;17.20;60.73;99956.75;4387259;32;34532;-87
2022/09/03 00:38:44;;;;;;;;;;;;;;;17.20;60.65;99957.59;4376900;32;32614;-85
2022/09/03 00:41:21;;;;;;;;;;;;;;;17.08;60.94;99959.28;4376672;32;32893;-86
2022/09/03 00:43:58;;;;;;;;;;;;;;;17.20;60.47;99964.75;4377919;32;33808;-85
2022/09/03 00:46:40;;;;;;;;;;;;;;;17.17;60.71;99962.28;4377592;32;33287;-85
2022/09/03 00:49:08;;;;;;;;;;;;;;;17.22;60.59;99961.00;4377429;32;32592;-85
2022/09/03 00:51:58;;;;;;;;;;;;;;;17.11;60.97;99961.75;4378241;32;32700;-85
2022/09/03 00:54:31;;;;;;;;;;;;;;;17.06;61.10;99958.53;4386538;32;33330;-85
2022/09/03 00:57:14;;;;;;;;;;;;;;;16.93;61.38;99959.47;4371575;32;33900;-86
2022/09/03 01:00:07;;;;;;;;;;;;;;;17.03;60.83;99953.41;4378538;32;33731;-86
2022/09/03 01:02:56;;;;;;;;;;;;;;;16.98;61.38;99960.84;4373879;32;33577;-86
2022/09/03 01:05:39;;;;;;;;;;;;;;;16.83;61.63;99961.91;4389573;32;34086;-86
2022/09/03 01:08:32;;;;;;;;;;;;;;;17.05;61.03;99972.00;4376671;32;32781;-84
2022/09/03 01:11:25;;;;;;;;;;;;;;;16.84;61.51;99967.12;4385304;32;33190;-85
2022/09/03 01:14:01;;;;;;;;;;;;;;;17.04;60.92;99973.81;4364420;32;33151;-84
2022/09/03 01:16:34;;;;;;;;;;;;;;;16.82;61.88;99978.87;4387725;32;32581;-86
2022/09/03 01:19:04;;;;;;;;;;;;;;;16.46;63.28;99980.28;4363138;32;33181;-85
2022/09/03 01:21:52;;;;;;;;;;;;;;;16.54;62.82;99977.97;4385553;32;33705;-86
2022/09/03 01:24:30;;;;;;;;;;;;;;;16.79;61.91;99987.91;4376564;32;34788;-86
2022/09/03 01:27:19;;;;;;;;;;;;;;;16.64;62.09;99984.41;4390073;32;33977;-85
2022/09/03 01:29:47;;;;;;;;;;;;;;;16.74;61.64;99975.84;4386975;32;32893;-85
2022/09/03 01:32:20;;;;;;;;;;;;;;;16.70;61.90;99975.16;4364998;32;32347;-85
2022/09/03 01:34:54;;;;;;;;;;;;;;;16.77;61.58;99975.66;4374120;32;32980;-86
2022/09/03 01:37:28;;;;;;;;;;;;;;;16.74;61.51;99979.34;4371774;32;33122;-86
2022/09/03 01:40:07;;;;;;;;;;;;;;;16.75;61.28;99974.88;4382358;32;33442;-86
2022/09/03 01:42:40;;;;;;;;;;;;;;;16.77;61.15;99983.66;4388369;32;33272;-85
2022/09/03 01:45:08;;;;;;;;;;;;;;;16.70;61.38;99976.97;4390565;32;34619;-85
2022/09/03 01:47:39;;;;;;;;;;;;;;;16.75;61.21;99986.41;4377308;32;34021;-85
2022/09/03 01:50:26;;;;;;;;;;;;;;;16.65;61.37;99980.78;4375968;32;32873;-85
2022/09/03 01:52:58;;;;;;;;;;;;;;;16.65;61.48;99983.44;4387126;32;33680;-85
2022/09/03 01:55:33;;;;;;;;;;;;;;;16.47;62.31;99997.97;4388060;32;33794;-86
2022/09/03 01:58:18;;;;;;;;;;;;;;;16.55;62.25;99990.34;4382424;32;33260;-86
2022/09/03 02:00:48;;;;;;;;;;;;;;;16.62;61.98;99986.34;4389220;32;34098;-86
2022/09/03 02:03:16;;;;;;;;;;;;;;;16.40;62.90;99991.34;4387575;32;34190;-86
2022/09/03 02:05:46;;;;;;;;;;;;;;;16.33;63.50;99996.22;4387026;32;34547;-86
2022/09/03 02:08:14;;;;;;;;;;;;;;;16.39;62.98;100000.31;4387441;32;34125;-88
2022/09/03 02:10:41;;;;;;;;;;;;;;;16.62;62.06;99985.50;4376454;32;33292;-88
2022/09/03 02:13:12;;;;;;;;;;;;;;;16.55;62.16;99993.00;4392431;32;33351;-86
2022/09/03 02:15:40;;;;;;;;;;;;;;;16.53;62.14;99989.59;4378291;32;34352;-87
2022/09/03 02:18:40;;;;;;;;;;;;;;;16.41;62.60;99989.53;4390511;32;35184;-86
2022/09/03 02:21:09;;;;;;;;;;;;;;;16.50;61.92;99989.78;4359216;32;34166;-87
2022/09/03 02:23:38;;;;;;;;;;;;;;;16.36;62.46;99990.69;4388733;32;33427;-88
2022/09/03 02:26:06;;;;;;;;;;;;;;;16.32;62.42;99994.50;4387821;32;33143;-88
2022/09/03 02:28:33;;;;;;;;;;;;;;;16.39;62.21;99989.66;4389805;32;34213;-86
2022/09/03 02:31:01;;;;;;;;;;;;;;;16.45;62.03;99989.25;4391325;32;33861;-85
2022/09/03 02:33:30;;;;;;;;;;;;;;;16.39;62.29;99989.66;4378210;32;32033;-86
2022/09/03 02:35:58;;;;;;;;;;;;;;;16.43;62.16;99985.84;4378014;32;33874;-86
2022/09/03 02:38:25;;;;;;;;;;;;;;;16.41;61.97;99985.06;4378642;32;33274;-86
2022/09/03 02:40:53;;;;;;;;;;;;;;;16.49;61.59;99996.09;4377767;32;33695;-85
2022/09/03 02:43:22;;;;;;;;;;;;;;;16.51;61.34;99998.63;4390914;32;33089;-85
2022/09/03 02:45:53;;;;;;;;;;;;;;;16.49;61.40;99997.91;4388734;32;32955;-85
2022/09/03 02:48:22;;;;;;;;;;;;;;;16.46;61.47;99992.75;4390080;32;34318;-85
2022/09/03 02:50:49;;;;;;;;;;;;;;;16.43;61.55;99991.16;4375781;32;33314;-85
2022/09/03 02:53:17;;;;;;;;;;;;;;;16.35;61.72;99993.47;4391607;32;33240;-85
2022/09/03 02:55:45;;;;;;;;;;;;;;;16.37;61.74;99995.06;4370950;32;34149;-85
2022/09/03 02:58:12;;;;;;;;;;;;;;;16.45;61.33;99997.25;4377102;32;32722;-85
2022/09/03 03:00:39;;;;;;;;;;;;;;;16.39;61.58;99992.31;4389292;32;34220;-85
2022/09/03 03:03:07;;;;;;;;;;;;;;;16.30;62.16;100001.75;4377545;32;31820;-86
2022/09/03 03:05:40;;;;;;;;;;;;;;;16.37;61.72;99997.72;4376717;32;33459;-86
2022/09/03 03:08:08;;;;;;;;;;;;;;;16.27;61.83;99988.59;4388488;32;35014;-86
2022/09/03 03:10:36;;;;;;;;;;;;;;;16.29;61.81;99984.06;4388005;32;34631;-86
2022/09/03 03:13:04;;;;;;;;;;;;;;;16.25;62.34;99992.34;4388843;32;33992;-85
2022/09/03 03:15:32;;;;;;;;;;;;;;;16.26;62.43;99992.22;4390150;32;34273;-86
2022/09/03 03:17:59;;;;;;;;;;;;;;;16.40;61.53;99996.69;4389424;32;33735;-86
2022/09/03 03:20:26;;;;;;;;;;;;;;;16.32;61.66;99991.84;4389230;32;33811;-86
2022/09/03 03:22:54;;;;;;;;;;;;;;;16.22;62.11;99993.37;4390785;32;33632;-86
2022/09/03 03:25:22;;;;;;;;;;;;;;;16.11;62.78;99998.53;4365737;32;33478;-86
2022/09/03 03:27:49;;;;;;;;;;;;;;;16.19;62.55;100003.37;4377915;32;34298;-87
2022/09/03 03:30:18;;;;;;;;;;;;;;;16.25;62.34;100009.19;4376466;32;33276;-87
2022/09/03 03:32:46;;;;;;;;;;;;;;;16.23;62.25;100011.06;4378661;32;32067;-86
2022/09/03 03:35:13;;;;;;;;;;;;;;;16.17;62.41;100010.63;4388853;32;34911;-87
2022/09/03 03:37:41;;;;;;;;;;;;;;;16.10;62.66;100004.84;4375356;32;33401;-87
2022/09/03 03:40:09;;;;;;;;;;;;;;;16.08;62.67;100002.25;4389829;32;33942;-87
2022/09/03 03:42:36;;;;;;;;;;;;;;;16.06;62.64;100004.16;4377573;32;33764;-87
2022/09/03 03:45:05;;;;;;;;;;;;;;;16.15;62.26;100012.53;4378049;32;33075;-87
2022/09/03 03:47:32;;;;;;;;;;;;;;;16.02;62.39;100010.63;4388065;32;35364;-86
2022/09/03 03:50:00;;;;;;;;;;;;;;;16.08;62.29;100018.22;4378254;32;33075;-86
2022/09/03 03:52:27;;;;;;;;;;;;;;;15.93;62.77;100019.19;4389528;32;33029;-85
2022/09/03 03:54:56;;;;;;;;;;;;;;;15.86;62.65;100013.41;4389741;32;34908;-85
2022/09/03 03:57:23;;;;;;;;;;;;;;;15.94;62.35;100007.59;4387615;32;35012;-86
2022/09/03 03:59:51;;;;;;;;;;;;;;;15.93;62.51;100011.22;4390244;32;33994;-86
2022/09/03 04:02:20;;;;;;;;;;;;;;;15.86;62.73;100018.72;4375699;32;31088;-86
2022/09/03 04:04:48;;;;;;;;;;;;;;;15.88;62.66;100021.28;4366035;32;32763;-86
2022/09/03 04:07:15;;;;;;;;;;;;;;;15.86;62.85;100026.72;4377243;32;33453;-86
2022/09/03 04:09:42;;;;;;;;;;;;;;;15.97;62.42;100031.38;4390909;32;33847;-86
2022/09/03 04:12:10;;;;;;;;;;;;;;;15.78;62.95;100030.81;4376625;32;32593;-86
2022/09/03 04:14:38;;;;;;;;;;;;;;;15.81;63.05;100031.47;4378410;32;33117;-86
2022/09/03 04:17:05;;;;;;;;;;;;;;;15.94;62.55;100039.53;4377435;32;34665;-86
2022/09/03 04:19:33;;;;;;;;;;;;;;;15.88;62.80;100040.78;4376532;32;34433;-86
2022/09/03 04:22:00;;;;;;;;;;;;;;;15.82;62.96;100043.84;4373930;32;32272;-86
2022/09/03 04:24:28;;;;;;;;;;;;;;;15.87;62.75;100040.87;4367399;32;33464;-86
2022/09/03 04:26:56;;;;;;;;;;;;;;;16.00;62.25;100036.53;4376313;32;33814;-86
2022/09/03 04:29:24;;;;;;;;;;;;;;;15.75;63.77;100045.16;4368767;32;32767;-86
2022/09/03 04:34:38;;;;;;;;;;;;;;;15.72;64.17;100041.84;4375505;32;34276;-86
2022/09/03 04:37:11;;;;;;;;;;;;;;;15.68;64.51;100043.81;4379798;32;34890;-86
2022/09/03 04:39:39;;;;;;;;;;;;;;;15.82;64.05;100051.81;4374084;32;33793;-87
2022/09/03 04:42:06;;;;;;;;;;;;;;;15.81;64.19;100051.94;4385306;32;32900;-86
2022/09/03 04:44:37;;;;;;;;;;;;;;;15.76;64.22;100053.97;4381744;32;33828;-87
2022/09/03 04:47:05;;;;;;;;;;;;;;;15.78;64.55;100054.78;4380870;32;33596;-86
2022/09/03 04:49:33;;;;;;;;;;;;;;;15.98;64.04;100048.22;4380240;32;33769;-85
2022/09/03 04:52:01;;;;;;;;;;;;;;;15.96;64.34;100052.78;4381982;32;34212;-85
2022/09/03 04:54:29;;;;;;;;;;;;;;;16.13;64.09;100050.75;4380015;32;34238;-85
2022/09/03 04:56:56;;;;;;;;;;;;;;;16.17;64.40;100050.56;4376273;32;33013;-85
2022/09/03 04:59:24;;;;;;;;;;;;;;;16.34;63.94;100056.56;4366701;32;35849;-86
2022/09/03 05:01:52;;;;;;;;;;;;;;;16.44;64.00;100046.16;4376839;32;32753;-86
2022/09/03 05:04:19;;;;;;;;;;;;;;;16.58;63.66;100043.47;4362569;32;33030;-86
2022/09/03 05:06:46;;;;;;;;;;;;;;;16.61;63.89;100048.59;4368701;32;33361;-86
2022/09/03 05:09:14;;;;;;;;;;;;;;;16.74;63.71;100045.16;4375463;32;33850;-86
2022/09/03 05:11:42;;;;;;;;;;;;;;;16.77;63.72;100044.97;4375307;32;30251;-86
2022/09/03 05:14:11;;;;;;;;;;;;;;;16.94;62.85;100043.84;4384063;32;33503;-85
2022/09/03 05:16:39;;;;;;;;;;;;;;;16.75;63.45;100054.88;4381030;32;33474;-85
2022/09/03 05:19:07;;;;;;;;;;;;;;;16.73;63.56;100056.78;4381768;32;34160;-86
2022/09/03 05:21:35;;;;;;;;;;;;;;;16.92;62.79;100057.31;4369489;32;32270;-86
2022/09/03 05:24:02;;;;;;;;;;;;;;;17.17;62.23;100058.34;4361582;32;33183;-85
2022/09/03 05:26:32;;;;;;;;;;;;;;;17.28;61.99;100045.13;4373252;32;34345;-86
2022/09/03 05:29:00;;;;;;;;;;;;;;;17.22;61.96;100042.88;4378921;32;34036;-85
2022/09/03 05:31:30;;;;;;;;;;;;;;;17.27;62.12;100044.25;4382386;32;33754;-86
2022/09/03 05:33:59;;;;;;;;;;;;;;;17.37;61.75;100044.50;4377707;32;34667;-86
2022/09/03 05:36:28;;;;;;;;;;;;;;;17.55;61.53;100040.56;4383035;32;33568;-85
2022/09/03 05:38:56;;;;;;;;;;;;;;;17.70;61.25;100044.00;4370741;32;34114;-85
2022/09/03 05:41:25;;;;;;;;;;;;;;;17.63;61.41;100043.59;4382062;32;33810;-86
2022/09/03 05:43:57;;;;;;;;;;;;;;;17.72;61.26;100050.09;4363983;32;32754;-86
2022/09/03 05:46:30;;;;;;;;;;;;;;;17.79;61.27;100054.06;4367482;32;34562;-85
2022/09/03 05:49:02;;;;;;;;;;;;;;;17.90;61.04;100045.34;4375554;32;33125;-86
2022/09/03 05:51:30;;;;;;;;;;;;;;;18.07;60.36;100055.66;4387919;32;33296;-86
2022/09/03 05:53:57;;;;;;;;;;;;;;;18.23;60.37;100052.78;4380319;32;34721;-85
2022/09/03 05:56:25;;;;;;;;;;;;;;;18.59;60.14;100049.25;4384338;32;33116;-86
2022/09/03 05:58:54;;;;;;;;;;;;;;;18.59;60.31;100054.59;4369230;32;34192;-85
2022/09/03 06:01:23;;;;;;;;;;;;;;;18.93;59.37;100050.31;4380606;32;32941;-85
2022/09/03 06:03:55;;;;;;;;;;;;;;;19.05;58.46;100045.91;4378560;32;33879;-85
2022/09/03 06:06:24;;;;;;;;;;;;;;;19.06;58.72;100041.38;4366958;32;33080;-85
2022/09/03 06:08:56;;;;;;;;;;;;;;;19.29;57.20;100040.50;4377285;32;34078;-85
2022/09/03 06:11:28;;;;;;;;;;;;;;;19.33;58.81;100046.50;4380143;32;33170;-85
2022/09/03 06:13:56;;;;;;;;;;;;;;;19.47;58.79;100040.94;4376382;32;33441;-85
2022/09/03 06:16:24;;;;;;;;;;;;;;;19.65;57.98;100039.56;4375198;32;35072;-85
2022/09/03 06:18:58;;;;;;;;;;;;;;;19.72;56.97;100041.75;4375924;32;32919;-85
2022/09/03 06:21:26;;;;;;;;;;;;;;;19.90;55.61;100043.84;4365870;32;32790;-85
2022/09/03 06:23:55;;;;;;;;;;;;;;;19.94;56.38;100045.31;4376196;32;34199;-85
2022/09/03 06:26:29;;;;;;;;;;;;;;;20.00;56.55;100043.97;4374588;32;33045;-85
2022/09/03 06:28:57;;;;;;;;;;;;;;;20.35;56.61;100041.13;4383542;32;33968;-87
2022/09/03 06:31:24;;;;;;;;;;;;;;;20.55;54.87;100038.69;4377280;32;33138;-87
2022/09/03 06:33:53;;;;;;;;;;;;;;;20.54;54.42;100032.50;4362093;32;32649;-85
2022/09/03 06:36:21;;;;;;;;;;;;;;;20.70;55.38;100029.44;4378317;32;31476;-85
2022/09/03 06:38:52;;;;;;;;;;;;;;;20.84;52.60;100022.88;4366283;32;31746;-86
2022/09/03 06:41:23;;;;;;;;;;;;;;;20.89;52.95;100026.06;4366088;32;32434;-86
2022/09/03 06:43:52;;;;;;;;;;;;;;;20.86;53.65;100023.63;4378065;32;33791;-86
2022/09/03 06:46:20;;;;;;;;;;;;;;;20.98;54.40;100025.28;4361802;32;33007;-88
2022/09/03 06:48:50;;;;;;;;;;;;;;;21.16;53.73;100028.25;4369425;32;33500;-88
2022/09/03 06:51:21;;;;;;;;;;;;;;;21.09;54.21;100022.56;4364973;32;32250;-88
2022/09/03 06:53:51;;;;;;;;;;;;;;;21.45;52.86;100017.75;4377503;32;34153;-88
2022/09/03 06:56:26;;;;;;;;;;;;;;;21.61;53.31;100023.53;4378818;32;34293;-88
2022/09/03 06:58:54;;;;;;;;;;;;;;;21.60;53.38;100016.47;4375522;32;34418;-88
2022/09/03 07:01:24;;;;;;;;;;;;;;;21.49;51.55;100019.22;4366330;32;32180;-88
2022/09/03 07:03:55;;;;;;;;;;;;;;;21.27;52.39;100027.34;4380696;32;33358;-91
2022/09/03 07:06:38;;;;;;;;;;;;;;;21.83;51.20;100021.66;4333647;33;34010;-90
2022/09/03 07:09:05;;;;;;;;;;;;;;;22.29;50.11;100014.97;4322153;33;33469;-86
2022/09/03 07:11:34;;;;;;;;;;;;;;;22.27;50.70;100020.50;4342982;33;33306;-85
2022/09/03 07:14:03;;;;;;;;;;;;;;;22.33;48.39;100013.72;4351605;32;33970;-86
2022/09/03 07:16:34;;;;;;;;;;;;;;;22.42;49.24;100013.72;4355893;32;33131;-86
2022/09/03 07:19:03;;;;;;;;;;;;;;;22.57;47.78;100016.87;4353158;32;33488;-86
2022/09/03 07:21:32;;;;;;;;;;;;;;;22.67;47.50;100012.34;4354941;32;31868;-86
2022/09/03 07:24:09;;;;;;;;;;;;;;;22.93;47.84;100006.47;4340310;33;32271;-86
2022/09/03 07:26:38;;;;;;;;;;;;;;;22.54;46.82;100010.91;4341941;33;34525;-86
2022/09/03 07:29:06;;;;;;;;;;;;;;;22.43;46.78;100009.19;4341224;33;33090;-86
2022/09/03 07:31:35;;;;;;;;;;;;;;;23.07;46.79;100014.13;4341830;33;33950;-85
2022/09/03 07:34:05;;;;;;;;;;;;;;;22.97;46.20;100013.25;4340865;33;32776;-86
2022/09/03 07:36:38;;;;;;;;;;;;;;;23.36;45.46;100007.84;4354043;32;33680;-86
2022/09/03 07:39:08;;;;;;;;;;;;;;;23.48;44.71;100012.09;4341663;33;32613;-86
2022/09/03 07:41:36;;;;;;;;;;;;;;;22.79;45.10;100031.06;4353179;32;30965;-85
2022/09/03 07:44:06;;;;;;;;;;;;;;;23.15;46.48;100016.97;4353242;32;35039;-87
2022/09/03 07:46:36;;;;;;;;;;;;;;;23.41;44.86;100021.78;4352114;32;32235;-87
2022/09/03 07:49:05;;;;;;;;;;;;;;;23.32;44.53;100025.31;4336995;33;33091;-87
2022/09/03 07:51:34;;;;;;;;;;;;;;;22.96;45.12;100025.03;4353573;32;33603;-87
2022/09/03 07:54:04;;;;;;;;;;;;;;;23.41;45.20;100027.16;4341647;32;33719;-87
2022/09/03 07:56:33;;;;;;;;;;;;;;;23.30;44.74;100020.06;4335881;33;34487;-87
2022/09/03 07:59:02;;;;;;;;;;;;;;;23.57;44.38;100018.47;4353291;32;33934;-88
2022/09/03 08:01:31;;;;;;;;;;;;;;;23.92;42.58;100025.91;4356390;32;32113;-87
2022/09/03 08:04:00;;;;;;;;;;;;;;;23.40;43.55;100026.28;4332333;32;33952;-88
2022/09/03 08:06:28;;;;;;;;;;;;;;;23.44;43.66;100022.31;4357539;32;33735;-88
2022/09/03 08:08:59;;;;;;;;;;;;;;;23.64;44.68;100025.88;4358622;32;33463;-88
2022/09/03 08:11:33;;;;;;;;;;;;;;;23.45;44.06;100023.16;4339431;32;32757;-89
2022/09/03 08:14:05;;;;;;;;;;;;;;;24.04;44.15;100029.31;4359314;32;34429;-88
2022/09/03 08:16:34;;;;;;;;;;;;;;;23.93;43.35;100023.09;4338099;32;33046;-88
2022/09/03 08:19:02;;;;;;;;;;;;;;;23.94;43.87;100024.78;4356927;32;34960;-88
2022/09/03 08:21:30;;;;;;;;;;;;;;;24.26;42.74;100018.12;4351637;32;32954;-88
2022/09/03 08:24:01;;;;;;;;;;;;;;;24.37;44.37;100025.22;4355028;32;34194;-88
2022/09/03 08:26:33;;;;;;;;;;;;;;;24.59;43.20;100019.38;4351670;32;33462;-88
2022/09/03 08:29:01;;;;;;;;;;;;;;;24.24;44.13;100020.13;4372747;32;34152;-89
2022/09/03 08:31:29;;;;;;;;;;;;;;;24.01;43.62;100022.34;4343180;32;32661;-88
2022/09/03 08:33:57;;;;;;;;;;;;;;;23.97;43.00;100029.88;4353105;32;32958;-87
2022/09/03 08:36:29;;;;;;;;;;;;;;;23.92;42.28;100023.22;4343321;32;34921;-88
2022/09/03 08:38:58;;;;;;;;;;;;;;;24.34;42.10;100023.63;4360594;32;33335;-88
2022/09/03 08:41:35;;;;;;;;;;;;;;;24.10;43.21;100034.94;4357864;32;34155;-88
2022/09/03 08:44:12;;;;;;;;;;;;;;;24.57;40.73;100025.94;4353596;32;34618;-90
2022/09/03 08:46:58;;;;;;;;;;;;;;;24.21;42.23;100036.59;4369794;32;34149;-90
2022/09/03 08:49:33;;;;;;;;;;;;;;;24.76;41.38;100037.47;4359232;32;34424;-90
2022/09/03 08:52:02;;;;;;;;;;;;;;;24.49;41.54;100029.38;4346459;32;33285;-89
2022/09/03 08:54:33;;;;;;;;;;;;;;;24.45;41.52;100022.59;4338098;32;33028;-90
2022/09/03 08:57:05;;;;;;;;;;;;;;;25.15;40.21;100012.88;4371804;32;34096;-89
2022/09/03 08:59:33;;;;;;;;;;;;;;;25.41;39.79;100017.50;4353730;32;33327;-88
2022/09/03 09:02:09;;;;;;;;;;;;;;;25.93;40.48;100018.38;4360726;32;33122;-89
2022/09/03 09:04:51;;;;;;;;;;;;;;;25.72;39.33;100013.31;4360119;32;32912;-89
2022/09/03 09:07:22;;;;;;;;;;;;;;;26.28;37.65;100003.00;4360312;32;34103;-89
2022/09/03 09:09:57;;;;;;;;;;;;;;;26.62;39.45;100002.94;4357463;32;33349;-88
2022/09/03 09:12:38;;;;;;;;;;;;;;;26.44;38.21;100002.22;4356584;32;33077;-89
2022/09/03 09:15:27;;;;;;;;;;;;;;;25.59;39.53;100003.91;4340403;32;34341;-89
2022/09/03 09:18:09;;;;;;;;;;;;;;;25.54;38.75;99993.59;4357347;32;33185;-89
2022/09/03 09:20:40;;;;;;;;;;;;;;;26.38;39.79;99992.03;4340851;32;33345;-89
2022/09/03 09:23:10;;;;;;;;;;;;;;;25.61;38.07;99994.66;4359494;32;33007;-90
2022/09/03 09:25:43;;;;;;;;;;;;;;;25.71;40.37;99999.97;4360561;32;33302;-89
2022/09/03 09:28:18;;;;;;;;;;;;;;;25.60;37.42;99997.53;4347318;32;33431;-89
2022/09/03 09:30:47;;;;;;;;;;;;;;;25.84;38.08;99989.59;4360747;32;32939;-89
2022/09/03 09:33:15;;;;;;;;;;;;;;;25.99;37.83;99993.37;4342081;32;33772;-89
2022/09/03 09:35:43;;;;;;;;;;;;;;;26.43;36.31;99989.69;4375416;32;32680;-90
2022/09/03 09:38:12;;;;;;;;;;;;;;;26.66;36.13;99985.37;4362475;32;35015;-89
2022/09/03 09:40:43;;;;;;;;;;;;;;;26.03;37.48;99991.22;4327232;32;32583;-89
2022/09/03 09:43:15;;;;;;;;;;;;;;;25.95;37.96;99986.59;4359231;32;32965;-88
2022/09/03 09:45:44;;;;;;;;;;;;;;;26.08;37.82;99986.16;4334917;32;33146;-88
2022/09/03 09:48:22;;;;;;;;;;;;;;;26.20;35.78;99982.12;4358119;32;33181;-88
2022/09/03 09:50:54;;;;;;;;;;;;;;;26.50;38.40;99982.62;4342100;32;32988;-88
2022/09/03 09:53:21;;;;;;;;;;;;;;;26.52;36.27;99986.84;4371335;32;31962;-89
2022/09/03 09:55:53;;;;;;;;;;;;;;;26.97;37.76;99982.88;4345984;32;32777;-88
2022/09/03 09:58:22;;;;;;;;;;;;;;;26.88;37.73;99988.47;4349805;32;33660;-88
2022/09/03 10:00:55;;;;;;;;;;;;;;;27.51;36.53;99987.81;4348544;32;32924;-88
2022/09/03 10:03:28;;;;;;;;;;;;;;;27.57;36.12;99984.38;4372424;32;31984;-88
2022/09/03 10:05:57;;;;;;;;;;;;;;;27.26;35.60;99987.81;4352359;32;33012;-88
2022/09/03 10:08:25;;;;;;;;;;;;;;;27.25;34.85;99988.84;4352165;32;33269;-88
2022/09/03 10:10:52;;;;;;;;;;;;;;;26.94;37.77;99990.50;4371423;32;34040;-88
2022/09/03 10:13:21;;;;;;;;;;;;;;;27.55;34.08;99983.72;4346688;32;31939;-89
2022/09/03 10:16:02;;;;;;;;;;;;;;;27.68;35.47;99981.34;4359380;32;33705;-88
2022/09/03 10:18:38;;;;;;;;;;;;;;;27.14;34.36;99986.47;4360155;32;34146;-88
2022/09/03 10:21:09;;;;;;;;;;;;;;;27.64;34.74;99990.00;4352762;32;34337;-88
2022/09/03 10:23:40;;;;;;;;;;;;;;;27.99;34.17;99977.87;4339645;32;34284;-88
2022/09/03 10:26:09;;;;;;;;;;;;;;;28.29;34.35;99979.78;4359302;32;34878;-88
2022/09/03 10:28:40;;;;;;;;;;;;;;;28.32;36.06;99974.00;4347109;32;33101;-88
2022/09/03 10:31:28;;;;;;;;;;;;;;;28.00;35.87;99979.56;4359046;32;33854;-88
2022/09/03 10:34:05;;;;;;;;;;;;;;;28.64;35.90;99976.75;4358082;32;33483;-88
2022/09/03 10:36:35;;;;;;;;;;;;;;;29.12;33.50;99964.69;4371881;32;34866;-88
2022/09/03 10:39:21;;;;;;;;;;;;;;;28.92;32.14;99964.31;4354651;32;34035;-91
2022/09/03 10:42:09;;;;;;;;;;;;;;;28.40;32.87;99964.16;4347883;32;32719;-91
2022/09/03 10:44:49;;;;;;;;;;;;;;;28.32;32.54;99967.72;4399538;32;31654;-91
2022/09/03 10:47:45;;;;;;;;;;;;;;;28.46;33.23;99961.56;4367704;32;33155;-91
2022/09/03 10:50:48;;;;;;;;;;;;;;;28.62;32.18;99965.19;4347617;32;33037;-90
2022/09/03 10:53:56;;;;;;;;;;;;;;;28.55;31.04;99960.50;4370694;32;33087;-88
2022/09/03 10:56:32;;;;;;;;;;;;;;;28.59;31.30;99950.13;4378634;32;33025;-88
2022/09/03 10:59:09;;;;;;;;;;;;;;;28.73;30.66;99943.06;4383488;32;33218;-88
2022/09/03 11:01:36;;;;;;;;;;;;;;;28.53;31.08;99948.97;4375908;32;33092;-91
2022/09/03 11:04:38;;;;;;;;;;;;;;;28.55;31.12;99946.06;4393013;32;33098;-91
2022/09/03 11:07:29;;;;;;;;;;;;;;;28.84;32.43;99940.75;4390255;32;33086;-92
2022/09/03 11:10:10;;;;;;;;;;;;;;;29.39;31.91;99938.78;4390359;32;32570;-91
2022/09/03 11:12:39;;;;;;;;;;;;;;;29.51;30.42;99941.88;4360671;32;33813;-92
2022/09/03 11:15:38;;;;;;;;;;;;;;;29.63;29.28;99934.16;4388630;32;34826;-92
2022/09/03 11:18:10;;;;;;;;;;;;;;;28.86;32.24;99939.72;4391832;32;32401;-92
2022/09/03 11:20:49;;;;;;;;;;;;;;;28.99;31.64;99948.16;4384410;32;32906;-92
2022/09/03 11:23:39;;;;;;;;;;;;;;;29.60;31.28;99935.38;4377362;32;33437;-92
2022/09/03 11:26:11;;;;;;;;;;;;;;;30.13;28.89;99940.69;4378911;32;34603;-91
2022/09/03 11:28:44;;;;;;;;;;;;;;;29.70;31.89;99945.97;4350621;32;31628;-90
2022/09/03 11:31:31;;;;;;;;;;;;;;;29.92;30.10;99946.91;4380519;32;32545;-89
2022/09/03 11:34:14;;;;;;;;;;;;;;;29.51;29.78;99947.34;4390248;32;34163;-89
2022/09/03 11:36:50;;;;;;;;;;;;;;;29.30;27.57;99943.47;4382705;32;34645;-88
2022/09/03 11:39:33;;;;;;;;;;;;;;;29.82;25.36;99939.03;4387132;32;32927;-88
2022/09/03 11:42:07;;;;;;;;;;;;;;;29.24;28.86;99946.06;4377408;32;33880;-88
2022/09/03 11:44:36;;;;;;;;;;;;;;;29.52;29.90;99940.84;4378901;32;34070;-88
2022/09/03 11:47:22;;;;;;;;;;;;;;;29.32;30.49;99944.09;4389439;32;35339;-86
2022/09/03 11:49:51;;;;;;;;;;;;;;;29.47;27.77;99940.56;4377998;32;33138;-88
2022/09/03 11:52:26;;;;;;;;;;;;;;;29.56;27.77;99944.94;4372655;32;33505;-88
2022/09/03 11:54:54;;;;;;;;;;;;;;;29.12;30.30;99942.94;4379180;32;34466;-88
2022/09/03 11:57:28;;;;;;;;;;;;;;;29.14;30.06;99946.31;4377649;32;33765;-87
2022/09/03 12:00:13;;;;;;;;;;;;;;;29.23;30.52;99945.22;4376630;32;32304;-87
2022/09/03 12:02:43;;;;;;;;;;;;;;;29.30;31.22;99943.47;4374505;32;34106;-93
2022/09/03 12:05:26;;;;;;;;;;;;;;;29.87;30.75;99946.63;4379439;32;32878;-93
2022/09/03 12:08:31;;;;;;;;;;;;;;;29.44;30.63;99951.84;4376562;32;32792;-93
2022/09/03 12:11:19;;;;;;;;;;;;;;;30.05;28.49;99945.22;4392198;32;32202;-91
2022/09/03 12:14:19;;;;;;;;;;;;;;;30.30;26.44;99944.91;4364324;32;32888;-92
2022/09/03 12:17:06;;;;;;;;;;;;;;;29.45;29.52;99937.19;4383514;32;33661;-90
2022/09/03 12:19:54;;;;;;;;;;;;;;;29.46;28.89;99933.44;4345039;32;32788;-91
2022/09/03 12:22:42;;;;;;;;;;;;;;;29.53;29.56;99934.38;4361090;32;33361;-91
2022/09/03 12:25:48;;;;;;;;;;;;;;;29.74;27.83;99934.53;4370546;32;32971;-91
2022/09/03 12:28:27;;;;;;;;;;;;;;;30.16;28.52;99938.47;4391874;32;33915;-92
2022/09/03 12:31:20;;;;;;;;;;;;;;;30.18;28.65;99928.22;4387005;32;32708;-92
2022/09/03 12:34:00;;;;;;;;;;;;;;;29.83;28.80;99938.84;4385625;32;31934;-93
2022/09/03 12:36:55;;;;;;;;;;;;;;;29.37;30.71;99937.28;4392235;32;33811;-94
2022/09/03 12:39:37;;;;;;;;;;;;;;;29.36;29.28;99936.44;4390621;32;33440;-89
2022/09/03 12:46:28;;;;;;;;;;;;;;;28.88;29.89;99930.38;4394011;32;34864;-88
2022/09/03 12:49:04;;;;;;;;;;;;;;;28.69;30.07;99937.16;4380619;32;34042;-88
2022/09/03 12:51:56;;;;;;;;;;;;;;;28.65;31.08;99938.53;4404765;32;33515;-88
2022/09/03 12:54:31;;;;;;;;;;;;;;;28.54;30.88;99942.50;4379800;32;33306;-87
2022/09/03 12:56:58;;;;;;;;;;;;;;;27.83;32.09;99945.38;4390969;32;33433;-88
2022/09/03 12:59:26;;;;;;;;;;;;;;;28.07;30.44;99948.00;4379399;32;32493;-88
2022/09/03 13:01:55;;;;;;;;;;;;;;;27.86;31.02;99948.56;4392220;32;34748;-88
2022/09/03 13:04:25;;;;;;;;;;;;;;;27.54;30.69;99947.63;4367667;32;34306;-88
2022/09/03 13:07:00;;;;;;;;;;;;;;;28.06;30.26;99940.87;4379599;32;33624;-88
2022/09/03 13:09:28;;;;;;;;;;;;;;;27.87;31.05;99941.28;4379747;32;33792;-88
2022/09/03 13:16:14;;;;;;;;;;;;;;;28.97;29.18;99923.03;4393562;32;35003;-88
2022/09/03 13:18:42;;;;;;;;;;;;;;;28.70;29.94;99918.97;4367466;32;32870;-88
2022/09/03 13:21:32;;;;;;;;;;;;;;;28.77;29.79;99917.19;4404573;32;32862;-88
2022/09/03 13:24:03;;;;;;;;;;;;;;;28.86;28.19;99920.69;4353209;32;33879;-88